Paynesville, Missouri
Current Conditions -  °F | °C
As of 7:15 AM on Thursday 27 Nov 2014 (Local Time) from KPPQ Reporting Station
Overcast Overcast  
Wind Chill: 21°   Ceiling: 2100
Heat Index: 29°   Visibility: 10mi
Dew Point: 24°   Wind: 8mph
Humidity: 83%   Direction: 310°NW
Pressure: 30.44"   Gusts: NA
Location:  39.3277°N, 90.9481°W
Report Text: KPPQ 271315Z AUTO 31007KT 10SM OVC021 M02/M04 A3044 RMK AO2 T10171043 PWINO
Loading
Personal Weather Stations






























Interactive Weather Map New forecast layout! Learn more

10-Day Weather Forecast

Advertisements
Track Severe Weather on mobile